Terminal Aerodrome Forecast
Issued by NWS Wilmington, OH

Current Version | Previous Version | Graphics & Text | Print | Product List | Glossary Off
Versions: 1 2 3 4 5 6 7 8 9 10 11 12 13 14 15 16 17 18 19 20 21 22 23 24 25 26 27 28 29

000
FTUS41 KILN 202341
TAFCVG
TAF
KCVG 202341Z 2100/2206 03010KT P6SM VCTS BKN040CB
     FM210100 VRB03KT P6SM SCT050
     FM210800 08004KT 4SM BR SCT050 BKN200
     FM211400 14004KT P6SM VCSH SCT040 BKN100
     FM211800 17008KT P6SM VCTS BKN050CB
     FM220000 18005KT P6SM SCT100=

USA.gov is the U.S. government's official web portal to all federal, state and local government web resources and services.